sensor_id;sensor_type;location;lat;lon;timestamp;P1;durP1;ratioP1;P2;durP2;ratioP2
19189;SDS011;9727;50.200;19.038;2022-07-12T00:00:25;7.53;;;5.27;;
19189;SDS011;9727;50.200;19.038;2022-07-12T00:02:53;6.30;;;5.37;;
19189;SDS011;9727;50.200;19.038;2022-07-12T00:05:20;9.43;;;5.23;;
19189;SDS011;9727;50.200;19.038;2022-07-12T00:07:47;9.33;;;5.60;;
19189;SDS011;9727;50.200;19.038;2022-07-12T00:10:14;6.73;;;5.50;;
19189;SDS011;9727;50.200;19.038;2022-07-12T00:12:41;6.77;;;5.33;;
19189;SDS011;9727;50.200;19.038;2022-07-12T00:15:08;11.40;;;5.23;;
19189;SDS011;9727;50.200;19.038;2022-07-12T00:17:36;6.77;;;5.47;;
19189;SDS011;9727;50.200;19.038;2022-07-12T00:20:05;9.70;;;5.87;;
19189;SDS011;9727;50.200;19.038;2022-07-12T00:22:32;9.47;;;5.50;;
19189;SDS011;9727;50.200;19.038;2022-07-12T00:25:01;7.23;;;6.13;;
19189;SDS011;9727;50.200;19.038;2022-07-12T00:27:27;10.20;;;6.17;;
19189;SDS011;9727;50.200;19.038;2022-07-12T00:29:55;6.53;;;5.67;;
19189;SDS011;9727;50.200;19.038;2022-07-12T00:32:24;9.33;;;6.33;;
19189;SDS011;9727;50.200;19.038;2022-07-12T00:34:50;11.90;;;6.00;;
19189;SDS011;9727;50.200;19.038;2022-07-12T00:37:19;7.33;;;5.63;;
19189;SDS011;9727;50.200;19.038;2022-07-12T00:39:45;7.70;;;6.10;;
19189;SDS011;9727;50.200;19.038;2022-07-12T00:42:12;9.43;;;6.10;;
19189;SDS011;9727;50.200;19.038;2022-07-12T00:44:39;9.40;;;6.50;;
19189;SDS011;9727;50.200;19.038;2022-07-12T00:47:06;7.40;;;6.23;;
19189;SDS011;9727;50.200;19.038;2022-07-12T00:49:32;10.57;;;6.90;;
19189;SDS011;9727;50.200;19.038;2022-07-12T00:51:59;11.87;;;6.13;;
19189;SDS011;9727;50.200;19.038;2022-07-12T00:54:28;9.57;;;5.80;;
19189;SDS011;9727;50.200;19.038;2022-07-12T00:56:55;6.50;;;5.80;;
19189;SDS011;9727;50.200;19.038;2022-07-12T00:59:22;10.00;;;6.23;;
19189;SDS011;9727;50.200;19.038;2022-07-12T01:01:48;12.77;;;5.93;;
19189;SDS011;9727;50.200;19.038;2022-07-12T01:04:15;10.53;;;5.97;;
19189;SDS011;9727;50.200;19.038;2022-07-12T01:06:43;8.10;;;6.00;;
19189;SDS011;9727;50.200;19.038;2022-07-12T01:09:10;7.23;;;5.60;;
19189;SDS011;9727;50.200;19.038;2022-07-12T01:11:39;8.17;;;5.57;;
19189;SDS011;9727;50.200;19.038;2022-07-12T01:14:05;7.67;;;5.37;;
19189;SDS011;9727;50.200;19.038;2022-07-12T01:16:33;9.40;;;5.87;;
19189;SDS011;9727;50.200;19.038;2022-07-12T01:19:02;7.13;;;5.07;;
19189;SDS011;9727;50.200;19.038;2022-07-12T01:21:31;8.83;;;6.00;;
19189;SDS011;9727;50.200;19.038;2022-07-12T01:23:59;13.60;;;5.67;;
19189;SDS011;9727;50.200;19.038;2022-07-12T01:26:27;8.57;;;6.20;;
19189;SDS011;9727;50.200;19.038;2022-07-12T01:29:01;10.13;;;5.77;;
19189;SDS011;9727;50.200;19.038;2022-07-12T01:31:31;10.47;;;6.47;;
19189;SDS011;9727;50.200;19.038;2022-07-12T01:33:58;9.13;;;6.07;;
19189;SDS011;9727;50.200;19.038;2022-07-12T01:36:25;7.53;;;5.80;;
19189;SDS011;9727;50.200;19.038;2022-07-12T01:38:51;11.73;;;6.40;;
19189;SDS011;9727;50.200;19.038;2022-07-12T01:41:26;10.20;;;6.10;;
19189;SDS011;9727;50.200;19.038;2022-07-12T01:44:04;7.97;;;5.87;;
19189;SDS011;9727;50.200;19.038;2022-07-12T01:46:32;8.63;;;6.10;;
19189;SDS011;9727;50.200;19.038;2022-07-12T01:48:58;8.33;;;5.77;;
19189;SDS011;9727;50.200;19.038;2022-07-12T01:51:25;7.27;;;5.47;;
19189;SDS011;9727;50.200;19.038;2022-07-12T01:53:52;7.43;;;5.30;;
19189;SDS011;9727;50.200;19.038;2022-07-12T01:56:20;10.10;;;6.07;;
19189;SDS011;9727;50.200;19.038;2022-07-12T01:58:47;6.23;;;5.63;;
19189;SDS011;9727;50.200;19.038;2022-07-12T02:01:14;6.53;;;5.63;;
19189;SDS011;9727;50.200;19.038;2022-07-12T02:03:41;7.67;;;6.37;;
19189;SDS011;9727;50.200;19.038;2022-07-12T02:06:08;6.50;;;5.43;;
19189;SDS011;9727;50.200;19.038;2022-07-12T02:08:35;9.23;;;5.70;;
19189;SDS011;9727;50.200;19.038;2022-07-12T02:11:02;7.40;;;5.17;;
19189;SDS011;9727;50.200;19.038;2022-07-12T02:13:32;7.00;;;5.20;;
19189;SDS011;9727;50.200;19.038;2022-07-12T02:16:02;5.73;;;5.03;;
19189;SDS011;9727;50.200;19.038;2022-07-12T02:18:31;8.37;;;5.03;;
19189;SDS011;9727;50.200;19.038;2022-07-12T02:20:58;5.83;;;4.77;;
19189;SDS011;9727;50.200;19.038;2022-07-12T02:23:25;6.47;;;4.97;;
19189;SDS011;9727;50.200;19.038;2022-07-12T02:25:52;10.50;;;4.90;;
19189;SDS011;9727;50.200;19.038;2022-07-12T02:28:19;8.73;;;5.30;;
19189;SDS011;9727;50.200;19.038;2022-07-12T02:30:58;7.97;;;5.10;;
19189;SDS011;9727;50.200;19.038;2022-07-12T02:33:29;10.27;;;5.03;;
19189;SDS011;9727;50.200;19.038;2022-07-12T02:36:02;6.97;;;5.10;;
19189;SDS011;9727;50.200;19.038;2022-07-12T02:38:29;8.20;;;4.40;;
19189;SDS011;9727;50.200;19.038;2022-07-12T02:40:56;6.20;;;4.67;;
19189;SDS011;9727;50.200;19.038;2022-07-12T02:43:23;9.13;;;5.27;;
19189;SDS011;9727;50.200;19.038;2022-07-12T02:45:51;7.97;;;5.40;;
19189;SDS011;9727;50.200;19.038;2022-07-12T02:48:18;6.40;;;5.13;;
19189;SDS011;9727;50.200;19.038;2022-07-12T02:50:45;6.57;;;5.50;;
19189;SDS011;9727;50.200;19.038;2022-07-12T02:53:12;9.30;;;5.30;;
19189;SDS011;9727;50.200;19.038;2022-07-12T02:55:38;6.33;;;4.83;;
19189;SDS011;9727;50.200;19.038;2022-07-12T02:58:05;6.93;;;5.27;;
19189;SDS011;9727;50.200;19.038;2022-07-12T03:00:32;9.70;;;5.33;;
19189;SDS011;9727;50.200;19.038;2022-07-12T03:03:05;7.80;;;5.53;;
19189;SDS011;9727;50.200;19.038;2022-07-12T03:05:33;7.37;;;5.33;;
19189;SDS011;9727;50.200;19.038;2022-07-12T03:08:02;5.83;;;5.10;;
19189;SDS011;9727;50.200;19.038;2022-07-12T03:10:29;5.73;;;5.20;;
19189;SDS011;9727;50.200;19.038;2022-07-12T03:12:56;7.97;;;5.37;;
19189;SDS011;9727;50.200;19.038;2022-07-12T03:15:22;6.57;;;5.50;;
19189;SDS011;9727;50.200;19.038;2022-07-12T03:17:49;5.77;;;5.20;;
19189;SDS011;9727;50.200;19.038;2022-07-12T03:20:17;5.80;;;5.20;;
19189;SDS011;9727;50.200;19.038;2022-07-12T03:22:44;9.03;;;5.73;;
19189;SDS011;9727;50.200;19.038;2022-07-12T03:25:13;6.90;;;5.50;;
19189;SDS011;9727;50.200;19.038;2022-07-12T03:27:40;7.03;;;5.70;;
19189;SDS011;9727;50.200;19.038;2022-07-12T03:30:08;8.00;;;5.90;;
19189;SDS011;9727;50.200;19.038;2022-07-12T03:32:35;7.27;;;5.70;;
19189;SDS011;9727;50.200;19.038;2022-07-12T03:35:03;7.57;;;5.00;;
19189;SDS011;9727;50.200;19.038;2022-07-12T03:37:39;6.37;;;5.77;;
19189;SDS011;9727;50.200;19.038;2022-07-12T03:40:07;6.60;;;5.87;;
19189;SDS011;9727;50.200;19.038;2022-07-12T03:42:35;6.63;;;5.97;;
19189;SDS011;9727;50.200;19.038;2022-07-12T03:45:02;6.87;;;5.97;;
19189;SDS011;9727;50.200;19.038;2022-07-12T03:47:31;8.27;;;6.43;;
19189;SDS011;9727;50.200;19.038;2022-07-12T03:50:00;8.07;;;5.90;;
19189;SDS011;9727;50.200;19.038;2022-07-12T03:52:27;6.37;;;5.77;;
19189;SDS011;9727;50.200;19.038;2022-07-12T03:54:58;8.57;;;6.43;;
19189;SDS011;9727;50.200;19.038;2022-07-12T03:57:25;9.03;;;6.33;;
19189;SDS011;9727;50.200;19.038;2022-07-12T03:59:52;9.10;;;6.23;;
19189;SDS011;9727;50.200;19.038;2022-07-12T04:02:19;8.73;;;6.33;;
19189;SDS011;9727;50.200;19.038;2022-07-12T04:04:45;10.40;;;6.07;;
19189;SDS011;9727;50.200;19.038;2022-07-12T04:07:12;10.93;;;6.30;;
19189;SDS011;9727;50.200;19.038;2022-07-12T04:09:39;8.83;;;6.23;;
19189;SDS011;9727;50.200;19.038;2022-07-12T04:12:08;11.33;;;6.70;;
19189;SDS011;9727;50.200;19.038;2022-07-12T04:14:37;10.27;;;6.27;;
19189;SDS011;9727;50.200;19.038;2022-07-12T04:17:04;10.37;;;5.70;;
19189;SDS011;9727;50.200;19.038;2022-07-12T04:19:31;14.77;;;5.90;;
19189;SDS011;9727;50.200;19.038;2022-07-12T04:21:58;10.93;;;5.43;;
19189;SDS011;9727;50.200;19.038;2022-07-12T04:24:25;9.00;;;5.50;;
19189;SDS011;9727;50.200;19.038;2022-07-12T04:26:52;11.33;;;6.33;;
19189;SDS011;9727;50.200;19.038;2022-07-12T04:29:20;11.93;;;6.10;;
19189;SDS011;9727;50.200;19.038;2022-07-12T04:31:47;8.20;;;5.77;;
19189;SDS011;9727;50.200;19.038;2022-07-12T04:34:18;10.10;;;6.20;;
19189;SDS011;9727;50.200;19.038;2022-07-12T04:36:45;9.30;;;6.03;;
19189;SDS011;9727;50.200;19.038;2022-07-12T04:39:12;9.63;;;5.63;;
19189;SDS011;9727;50.200;19.038;2022-07-12T04:41:39;10.20;;;5.67;;
19189;SDS011;9727;50.200;19.038;2022-07-12T04:44:06;9.37;;;5.80;;
19189;SDS011;9727;50.200;19.038;2022-07-12T04:46:36;6.80;;;5.43;;
19189;SDS011;9727;50.200;19.038;2022-07-12T04:49:03;11.00;;;5.77;;
19189;SDS011;9727;50.200;19.038;2022-07-12T04:51:31;9.93;;;5.30;;
19189;SDS011;9727;50.200;19.038;2022-07-12T04:53:58;7.47;;;4.60;;
19189;SDS011;9727;50.200;19.038;2022-07-12T04:56:25;7.23;;;4.60;;
19189;SDS011;9727;50.200;19.038;2022-07-12T04:58:52;10.50;;;5.17;;
19189;SDS011;9727;50.200;19.038;2022-07-12T05:01:19;6.97;;;4.73;;
19189;SDS011;9727;50.200;19.038;2022-07-12T05:03:47;6.10;;;4.40;;
19189;SDS011;9727;50.200;19.038;2022-07-12T05:06:14;7.20;;;4.50;;
19189;SDS011;9727;50.200;19.038;2022-07-12T05:08:41;7.93;;;4.10;;
19189;SDS011;9727;50.200;19.038;2022-07-12T05:11:08;9.57;;;5.50;;
19189;SDS011;9727;50.200;19.038;2022-07-12T05:13:35;9.33;;;5.97;;
19189;SDS011;9727;50.200;19.038;2022-07-12T05:16:05;9.03;;;6.23;;
19189;SDS011;9727;50.200;19.038;2022-07-12T05:18:32;9.43;;;6.60;;
19189;SDS011;9727;50.200;19.038;2022-07-12T05:21:03;10.33;;;7.40;;
19189;SDS011;9727;50.200;19.038;2022-07-12T05:23:30;9.17;;;6.67;;
19189;SDS011;9727;50.200;19.038;2022-07-12T05:25:56;9.03;;;7.30;;
19189;SDS011;9727;50.200;19.038;2022-07-12T05:28:23;8.77;;;7.87;;
19189;SDS011;9727;50.200;19.038;2022-07-12T05:30:50;12.73;;;8.13;;
19189;SDS011;9727;50.200;19.038;2022-07-12T05:33:17;11.97;;;9.23;;
19189;SDS011;9727;50.200;19.038;2022-07-12T05:35:44;13.23;;;9.40;;
19189;SDS011;9727;50.200;19.038;2022-07-12T05:38:12;13.57;;;9.60;;
19189;SDS011;9727;50.200;19.038;2022-07-12T05:40:38;16.20;;;10.60;;
19189;SDS011;9727;50.200;19.038;2022-07-12T05:43:05;13.20;;;9.03;;
19189;SDS011;9727;50.200;19.038;2022-07-12T05:45:33;14.53;;;10.00;;
19189;SDS011;9727;50.200;19.038;2022-07-12T05:48:04;17.53;;;10.13;;
19189;SDS011;9727;50.200;19.038;2022-07-12T05:50:31;15.03;;;9.73;;
19189;SDS011;9727;50.200;19.038;2022-07-12T05:52:58;12.10;;;8.50;;
19189;SDS011;9727;50.200;19.038;2022-07-12T05:55:43;13.10;;;8.73;;
19189;SDS011;9727;50.200;19.038;2022-07-12T05:58:11;11.90;;;8.03;;
19189;SDS011;9727;50.200;19.038;2022-07-12T06:00:38;13.73;;;8.27;;
19189;SDS011;9727;50.200;19.038;2022-07-12T06:03:04;10.70;;;7.73;;
19189;SDS011;9727;50.200;19.038;2022-07-12T06:05:31;13.17;;;7.90;;
19189;SDS011;9727;50.200;19.038;2022-07-12T06:07:58;11.80;;;7.37;;
19189;SDS011;9727;50.200;19.038;2022-07-12T06:10:25;10.40;;;7.23;;
19189;SDS011;9727;50.200;19.038;2022-07-12T06:12:53;11.97;;;7.63;;
19189;SDS011;9727;50.200;19.038;2022-07-12T06:15:19;11.97;;;8.00;;
19189;SDS011;9727;50.200;19.038;2022-07-12T06:17:46;10.70;;;7.30;;
19189;SDS011;9727;50.200;19.038;2022-07-12T06:20:14;11.80;;;8.07;;
19189;SDS011;9727;50.200;19.038;2022-07-12T06:22:41;10.93;;;7.67;;
19189;SDS011;9727;50.200;19.038;2022-07-12T06:25:10;10.07;;;8.13;;
19189;SDS011;9727;50.200;19.038;2022-07-12T06:27:37;14.53;;;9.17;;
19189;SDS011;9727;50.200;19.038;2022-07-12T06:30:06;10.23;;;7.77;;
19189;SDS011;9727;50.200;19.038;2022-07-12T06:32:33;9.87;;;7.30;;
19189;SDS011;9727;50.200;19.038;2022-07-12T06:35:01;9.07;;;6.97;;
19189;SDS011;9727;50.200;19.038;2022-07-12T06:37:27;11.27;;;7.87;;
19189;SDS011;9727;50.200;19.038;2022-07-12T06:39:54;7.33;;;6.63;;
19189;SDS011;9727;50.200;19.038;2022-07-12T06:42:21;8.23;;;6.47;;
19189;SDS011;9727;50.200;19.038;2022-07-12T06:44:48;8.53;;;6.37;;
19189;SDS011;9727;50.200;19.038;2022-07-12T06:47:16;8.70;;;5.73;;
19189;SDS011;9727;50.200;19.038;2022-07-12T06:49:42;6.27;;;5.40;;
19189;SDS011;9727;50.200;19.038;2022-07-12T06:52:09;5.40;;;4.87;;
19189;SDS011;9727;50.200;19.038;2022-07-12T06:54:36;5.47;;;4.87;;
19189;SDS011;9727;50.200;19.038;2022-07-12T06:57:03;4.77;;;4.37;;
19189;SDS011;9727;50.200;19.038;2022-07-12T06:59:30;6.30;;;4.40;;
19189;SDS011;9727;50.200;19.038;2022-07-12T07:01:56;6.07;;;3.60;;
19189;SDS011;9727;50.200;19.038;2022-07-12T07:04:25;4.90;;;3.57;;
19189;SDS011;9727;50.200;19.038;2022-07-12T07:06:52;4.70;;;3.20;;
19189;SDS011;9727;50.200;19.038;2022-07-12T07:09:18;6.77;;;3.60;;
19189;SDS011;9727;50.200;19.038;2022-07-12T07:11:45;6.13;;;3.00;;
19189;SDS011;9727;50.200;19.038;2022-07-12T07:14:12;2.97;;;2.43;;
19189;SDS011;9727;50.200;19.038;2022-07-12T07:16:39;5.47;;;2.60;;
19189;SDS011;9727;50.200;19.038;2022-07-12T07:19:06;5.03;;;2.30;;
19189;SDS011;9727;50.200;19.038;2022-07-12T07:21:35;4.30;;;2.43;;
19189;SDS011;9727;50.200;19.038;2022-07-12T07:24:02;4.40;;;2.40;;
19189;SDS011;9727;50.200;19.038;2022-07-12T07:26:29;3.40;;;1.90;;
19189;SDS011;9727;50.200;19.038;2022-07-12T07:28:56;3.20;;;2.00;;
19189;SDS011;9727;50.200;19.038;2022-07-12T07:31:40;3.17;;;1.83;;
19189;SDS011;9727;50.200;19.038;2022-07-12T07:34:07;4.30;;;2.00;;
19189;SDS011;9727;50.200;19.038;2022-07-12T07:36:35;3.97;;;2.03;;
19189;SDS011;9727;50.200;19.038;2022-07-12T07:39:02;4.23;;;2.20;;
19189;SDS011;9727;50.200;19.038;2022-07-12T07:41:32;2.83;;;1.60;;
19189;SDS011;9727;50.200;19.038;2022-07-12T07:43:58;4.93;;;1.80;;
19189;SDS011;9727;50.200;19.038;2022-07-12T07:46:25;2.50;;;1.80;;
19189;SDS011;9727;50.200;19.038;2022-07-12T07:48:52;3.67;;;1.70;;
19189;SDS011;9727;50.200;19.038;2022-07-12T07:51:19;4.07;;;1.40;;
19189;SDS011;9727;50.200;19.038;2022-07-12T07:53:47;7.17;;;1.50;;
19189;SDS011;9727;50.200;19.038;2022-07-12T07:56:14;6.17;;;1.13;;
19189;SDS011;9727;50.200;19.038;2022-07-12T07:58:41;1.63;;;1.23;;
19189;SDS011;9727;50.200;19.038;2022-07-12T08:01:08;5.60;;;1.23;;
19189;SDS011;9727;50.200;19.038;2022-07-12T08:03:35;1.60;;;1.03;;
19189;SDS011;9727;50.200;19.038;2022-07-12T08:06:02;2.00;;;1.00;;
19189;SDS011;9727;50.200;19.038;2022-07-12T08:08:29;2.50;;;1.10;;
19189;SDS011;9727;50.200;19.038;2022-07-12T08:10:59;2.13;;;1.00;;
19189;SDS011;9727;50.200;19.038;2022-07-12T08:13:26;1.67;;;0.97;;
19189;SDS011;9727;50.200;19.038;2022-07-12T08:15:53;3.23;;;1.17;;
19189;SDS011;9727;50.200;19.038;2022-07-12T08:18:19;3.03;;;1.10;;
19189;SDS011;9727;50.200;19.038;2022-07-12T08:20:46;1.53;;;1.20;;
19189;SDS011;9727;50.200;19.038;2022-07-12T08:23:13;1.80;;;1.00;;
19189;SDS011;9727;50.200;19.038;2022-07-12T08:25:40;2.77;;;1.30;;
19189;SDS011;9727;50.200;19.038;2022-07-12T08:28:08;1.60;;;1.00;;
19189;SDS011;9727;50.200;19.038;2022-07-12T08:30:35;2.63;;;1.20;;
19189;SDS011;9727;50.200;19.038;2022-07-12T08:33:02;2.47;;;1.03;;
19189;SDS011;9727;50.200;19.038;2022-07-12T08:35:29;3.03;;;1.20;;
19189;SDS011;9727;50.200;19.038;2022-07-12T08:37:55;5.50;;;1.20;;
19189;SDS011;9727;50.200;19.038;2022-07-12T08:40:22;3.13;;;1.43;;
19189;SDS011;9727;50.200;19.038;2022-07-12T08:42:49;2.43;;;1.30;;
19189;SDS011;9727;50.200;19.038;2022-07-12T08:45:17;1.20;;;0.93;;
19189;SDS011;9727;50.200;19.038;2022-07-12T08:47:44;3.97;;;1.13;;
19189;SDS011;9727;50.200;19.038;2022-07-12T08:50:12;3.77;;;1.20;;
19189;SDS011;9727;50.200;19.038;2022-07-12T08:52:42;4.53;;;1.27;;
19189;SDS011;9727;50.200;19.038;2022-07-12T08:55:16;2.07;;;1.10;;
19189;SDS011;9727;50.200;19.038;2022-07-12T08:57:43;3.43;;;1.20;;
19189;SDS011;9727;50.200;19.038;2022-07-12T09:00:10;2.47;;;1.17;;
19189;SDS011;9727;50.200;19.038;2022-07-12T09:02:45;3.43;;;1.03;;
19189;SDS011;9727;50.200;19.038;2022-07-12T09:05:13;2.17;;;0.97;;
19189;SDS011;9727;50.200;19.038;2022-07-12T09:07:40;1.27;;;0.90;;
19189;SDS011;9727;50.200;19.038;2022-07-12T09:10:08;2.90;;;0.90;;
19189;SDS011;9727;50.200;19.038;2022-07-12T09:12:35;4.97;;;1.23;;
19189;SDS011;9727;50.200;19.038;2022-07-12T09:15:12;2.83;;;1.23;;
19189;SDS011;9727;50.200;19.038;2022-07-12T09:17:39;1.90;;;0.90;;
19189;SDS011;9727;50.200;19.038;2022-07-12T09:20:09;3.53;;;0.93;;
19189;SDS011;9727;50.200;19.038;2022-07-12T09:22:37;2.20;;;1.00;;
19189;SDS011;9727;50.200;19.038;2022-07-12T09:25:13;3.87;;;0.97;;
19189;SDS011;9727;50.200;19.038;2022-07-12T09:27:46;3.17;;;1.20;;
19189;SDS011;9727;50.200;19.038;2022-07-12T09:30:15;2.47;;;1.70;;
19189;SDS011;9727;50.200;19.038;2022-07-12T09:32:49;4.32;;;1.45;;
19189;SDS011;9727;50.200;19.038;2022-07-12T09:35:37;4.37;;;1.03;;
19189;SDS011;9727;50.200;19.038;2022-07-12T09:38:21;2.87;;;1.17;;
19189;SDS011;9727;50.200;19.038;2022-07-12T09:40:48;6.00;;;1.30;;
19189;SDS011;9727;50.200;19.038;2022-07-12T09:43:15;2.37;;;0.90;;
19189;SDS011;9727;50.200;19.038;2022-07-12T09:45:43;6.75;;;1.33;;
19189;SDS011;9727;50.200;19.038;2022-07-12T09:48:11;6.30;;;1.23;;
19189;SDS011;9727;50.200;19.038;2022-07-12T09:50:39;1.73;;;1.00;;
19189;SDS011;9727;50.200;19.038;2022-07-12T09:53:07;1.08;;;0.80;;
19189;SDS011;9727;50.200;19.038;2022-07-12T09:55:35;5.72;;;1.35;;
19189;SDS011;9727;50.200;19.038;2022-07-12T09:58:05;2.92;;;1.20;;
19189;SDS011;9727;50.200;19.038;2022-07-12T10:00:34;2.55;;;0.77;;
19189;SDS011;9727;50.200;19.038;2022-07-12T10:03:02;3.35;;;1.10;;
19189;SDS011;9727;50.200;19.038;2022-07-12T10:05:29;2.30;;;0.90;;
19189;SDS011;9727;50.200;19.038;2022-07-12T10:08:06;2.65;;;1.10;;
19189;SDS011;9727;50.200;19.038;2022-07-12T10:10:36;4.80;;;1.50;;
19189;SDS011;9727;50.200;19.038;2022-07-12T10:13:03;3.73;;;1.60;;
19189;SDS011;9727;50.200;19.038;2022-07-12T10:15:30;3.10;;;1.20;;
19189;SDS011;9727;50.200;19.038;2022-07-12T10:17:57;4.80;;;1.50;;
19189;SDS011;9727;50.200;19.038;2022-07-12T10:20:26;3.93;;;1.60;;
19189;SDS011;9727;50.200;19.038;2022-07-12T10:22:58;2.43;;;1.30;;
19189;SDS011;9727;50.200;19.038;2022-07-12T10:25:45;3.37;;;1.00;;
19189;SDS011;9727;50.200;19.038;2022-07-12T10:28:15;1.73;;;0.90;;
19189;SDS011;9727;50.200;19.038;2022-07-12T10:33:23;4.47;;;1.00;;
19189;SDS011;9727;50.200;19.038;2022-07-12T10:36:00;2.07;;;1.00;;
19189;SDS011;9727;50.200;19.038;2022-07-12T10:38:31;2.73;;;0.77;;
19189;SDS011;9727;50.200;19.038;2022-07-12T10:41:00;2.97;;;1.00;;
19189;SDS011;9727;50.200;19.038;2022-07-12T10:43:41;2.40;;;0.90;;
19189;SDS011;9727;50.200;19.038;2022-07-12T10:46:27;3.13;;;1.00;;
19189;SDS011;9727;50.200;19.038;2022-07-12T10:49:28;2.77;;;1.13;;
19189;SDS011;9727;50.200;19.038;2022-07-12T10:52:15;2.33;;;0.90;;
19189;SDS011;9727;50.200;19.038;2022-07-12T10:54:42;2.03;;;0.67;;
19189;SDS011;9727;50.200;19.038;2022-07-12T10:57:11;2.17;;;1.00;;
19189;SDS011;9727;50.200;19.038;2022-07-12T10:59:38;1.37;;;0.90;;
19189;SDS011;9727;50.200;19.038;2022-07-12T11:02:05;2.67;;;1.10;;
19189;SDS011;9727;50.200;19.038;2022-07-12T11:04:31;4.20;;;1.10;;
19189;SDS011;9727;50.200;19.038;2022-07-12T11:07:02;1.50;;;1.00;;
19189;SDS011;9727;50.200;19.038;2022-07-12T11:09:33;3.20;;;1.00;;
19189;SDS011;9727;50.200;19.038;2022-07-12T11:12:02;2.67;;;1.30;;
19189;SDS011;9727;50.200;19.038;2022-07-12T11:14:39;2.03;;;1.10;;
19189;SDS011;9727;50.200;19.038;2022-07-12T11:17:11;1.27;;;1.00;;
19189;SDS011;9727;50.200;19.038;2022-07-12T11:19:41;5.97;;;0.90;;
19189;SDS011;9727;50.200;19.038;2022-07-12T11:22:11;3.07;;;1.20;;
19189;SDS011;9727;50.200;19.038;2022-07-12T11:24:49;3.97;;;1.10;;
19189;SDS011;9727;50.200;19.038;2022-07-12T11:27:23;2.10;;;1.33;;
19189;SDS011;9727;50.200;19.038;2022-07-12T11:29:59;4.80;;;1.17;;
19189;SDS011;9727;50.200;19.038;2022-07-12T11:32:39;4.45;;;1.10;;
19189;SDS011;9727;50.200;19.038;2022-07-12T11:35:19;4.65;;;1.05;;
19189;SDS011;9727;50.200;19.038;2022-07-12T11:37:48;2.72;;;1.30;;
19189;SDS011;9727;50.200;19.038;2022-07-12T11:40:24;2.20;;;1.13;;
19189;SDS011;9727;50.200;19.038;2022-07-12T11:43:01;4.32;;;1.13;;
19189;SDS011;9727;50.200;19.038;2022-07-12T11:45:37;1.65;;;0.88;;
19189;SDS011;9727;50.200;19.038;2022-07-12T11:48:10;2.88;;;1.00;;
19189;SDS011;9727;50.200;19.038;2022-07-12T11:50:41;1.35;;;0.73;;
19189;SDS011;9727;50.200;19.038;2022-07-12T11:53:14;3.40;;;1.10;;
19189;SDS011;9727;50.200;19.038;2022-07-12T11:55:47;4.38;;;0.88;;
19189;SDS011;9727;50.200;19.038;2022-07-12T11:58:17;1.38;;;0.63;;
19189;SDS011;9727;50.200;19.038;2022-07-12T12:00:47;4.97;;;1.00;;
19189;SDS011;9727;50.200;19.038;2022-07-12T12:03:17;0.90;;;0.70;;
19189;SDS011;9727;50.200;19.038;2022-07-12T12:05:55;2.10;;;0.82;;
19189;SDS011;9727;50.200;19.038;2022-07-12T12:08:37;1.35;;;0.80;;
19189;SDS011;9727;50.200;19.038;2022-07-12T12:11:05;0.70;;;0.70;;
19189;SDS011;9727;50.200;19.038;2022-07-12T12:13:32;3.67;;;1.10;;
19189;SDS011;9727;50.200;19.038;2022-07-12T12:16:04;2.20;;;0.95;;
19189;SDS011;9727;50.200;19.038;2022-07-12T12:18:32;2.15;;;0.80;;
19189;SDS011;9727;50.200;19.038;2022-07-12T12:21:00;2.25;;;0.80;;
19189;SDS011;9727;50.200;19.038;2022-07-12T12:23:27;2.88;;;0.80;;
19189;SDS011;9727;50.200;19.038;2022-07-12T12:26:12;3.15;;;0.90;;
19189;SDS011;9727;50.200;19.038;2022-07-12T12:28:45;1.55;;;1.10;;
19189;SDS011;9727;50.200;19.038;2022-07-12T12:31:15;1.42;;;0.77;;
19189;SDS011;9727;50.200;19.038;2022-07-12T12:33:43;1.60;;;0.80;;
19189;SDS011;9727;50.200;19.038;2022-07-12T12:36:17;3.80;;;0.70;;
19189;SDS011;9727;50.200;19.038;2022-07-12T12:38:44;1.00;;;0.65;;
19189;SDS011;9727;50.200;19.038;2022-07-12T12:41:11;3.17;;;0.70;;
19189;SDS011;9727;50.200;19.038;2022-07-12T12:43:38;1.10;;;0.70;;
19189;SDS011;9727;50.200;19.038;2022-07-12T12:46:05;1.05;;;0.65;;
19189;SDS011;9727;50.200;19.038;2022-07-12T12:48:34;4.97;;;0.90;;
19189;SDS011;9727;50.200;19.038;2022-07-12T12:51:04;0.70;;;0.70;;
19189;SDS011;9727;50.200;19.038;2022-07-12T12:53:31;1.63;;;0.70;;
19189;SDS011;9727;50.200;19.038;2022-07-12T12:55:58;1.50;;;0.73;;
19189;SDS011;9727;50.200;19.038;2022-07-12T12:58:25;2.83;;;0.77;;
19189;SDS011;9727;50.200;19.038;2022-07-12T13:00:52;4.07;;;1.00;;
19189;SDS011;9727;50.200;19.038;2022-07-12T13:03:20;1.15;;;0.80;;
19189;SDS011;9727;50.200;19.038;2022-07-12T13:05:50;1.15;;;0.70;;
19189;SDS011;9727;50.200;19.038;2022-07-12T13:08:17;1.50;;;0.70;;
19189;SDS011;9727;50.200;19.038;2022-07-12T13:10:47;3.08;;;0.77;;
19189;SDS011;9727;50.200;19.038;2022-07-12T13:13:37;1.77;;;0.90;;
19189;SDS011;9727;50.200;19.038;2022-07-12T13:16:04;2.15;;;0.60;;
19189;SDS011;9727;50.200;19.038;2022-07-12T13:18:31;1.45;;;0.90;;
19189;SDS011;9727;50.200;19.038;2022-07-12T13:20:59;0.88;;;0.77;;
19189;SDS011;9727;50.200;19.038;2022-07-12T13:23:26;1.48;;;0.60;;
19189;SDS011;9727;50.200;19.038;2022-07-12T13:25:54;0.85;;;0.70;;
19189;SDS011;9727;50.200;19.038;2022-07-12T13:28:21;1.63;;;0.60;;
19189;SDS011;9727;50.200;19.038;2022-07-12T13:30:48;3.60;;;0.80;;
19189;SDS011;9727;50.200;19.038;2022-07-12T13:33:15;2.20;;;0.65;;
19189;SDS011;9727;50.200;19.038;2022-07-12T13:35:41;1.85;;;0.60;;
19189;SDS011;9727;50.200;19.038;2022-07-12T13:38:12;3.50;;;0.70;;
19189;SDS011;9727;50.200;19.038;2022-07-12T13:40:38;1.63;;;0.60;;
19189;SDS011;9727;50.200;19.038;2022-07-12T13:43:05;1.50;;;0.70;;
19189;SDS011;9727;50.200;19.038;2022-07-12T13:45:32;0.65;;;0.52;;
19189;SDS011;9727;50.200;19.038;2022-07-12T13:47:59;0.50;;;0.50;;
19189;SDS011;9727;50.200;19.038;2022-07-12T13:50:29;1.25;;;0.55;;
19189;SDS011;9727;50.200;19.038;2022-07-12T13:52:55;3.15;;;0.77;;
19189;SDS011;9727;50.200;19.038;2022-07-12T13:55:25;3.33;;;0.80;;
19189;SDS011;9727;50.200;19.038;2022-07-12T13:57:56;1.20;;;0.60;;
19189;SDS011;9727;50.200;19.038;2022-07-12T14:00:23;1.55;;;0.68;;
19189;SDS011;9727;50.200;19.038;2022-07-12T14:02:50;1.92;;;0.82;;
19189;SDS011;9727;50.200;19.038;2022-07-12T14:05:17;0.65;;;0.60;;
19189;SDS011;9727;50.200;19.038;2022-07-12T14:07:45;1.00;;;0.70;;
19189;SDS011;9727;50.200;19.038;2022-07-12T14:10:12;2.33;;;1.00;;
19189;SDS011;9727;50.200;19.038;2022-07-12T14:12:41;1.85;;;0.88;;
19189;SDS011;9727;50.200;19.038;2022-07-12T14:15:08;3.22;;;0.70;;
19189;SDS011;9727;50.200;19.038;2022-07-12T14:17:45;2.20;;;0.80;;
19189;SDS011;9727;50.200;19.038;2022-07-12T14:20:13;1.15;;;0.80;;
19189;SDS011;9727;50.200;19.038;2022-07-12T14:22:41;2.30;;;0.93;;
19189;SDS011;9727;50.200;19.038;2022-07-12T14:25:08;0.75;;;0.70;;
19189;SDS011;9727;50.200;19.038;2022-07-12T14:27:35;3.67;;;1.00;;
19189;SDS011;9727;50.200;19.038;2022-07-12T14:30:04;2.60;;;1.15;;
19189;SDS011;9727;50.200;19.038;2022-07-12T14:32:32;1.40;;;1.00;;
19189;SDS011;9727;50.200;19.038;2022-07-12T14:34:58;2.00;;;1.00;;
19189;SDS011;9727;50.200;19.038;2022-07-12T14:37:25;0.73;;;0.70;;
19189;SDS011;9727;50.200;19.038;2022-07-12T14:39:52;2.20;;;0.90;;
19189;SDS011;9727;50.200;19.038;2022-07-12T14:42:20;1.73;;;0.90;;
19189;SDS011;9727;50.200;19.038;2022-07-12T14:44:46;1.65;;;0.98;;
19189;SDS011;9727;50.200;19.038;2022-07-12T14:47:15;1.42;;;1.00;;
19189;SDS011;9727;50.200;19.038;2022-07-12T14:49:41;1.85;;;0.90;;
19189;SDS011;9727;50.200;19.038;2022-07-12T14:52:08;2.10;;;1.00;;
19189;SDS011;9727;50.200;19.038;2022-07-12T14:54:35;4.10;;;1.20;;
19189;SDS011;9727;50.200;19.038;2022-07-12T14:57:02;5.18;;;0.82;;